Time;durP1;ratioP1;P1;durP2;ratioP2;P2;SDS_P1;SDS_P2;PMS_P1;PMS_P2;Temp;Humidity;BMP_temperature;BMP_pressure;BME280_temperature;BME280_humidity;BME280_pressure;Samples;Min_cycle;Max_cycle;Signal;HPM_P1;HPM_P2
2023/01/23 00:02:09;;;;;;;28.30;12.70;;;1.20;99.90;;;;;;5053769;28;20653;-71
2023/01/23 00:04:36;;;;;;;25.73;11.87;;;1.10;99.90;;;;;;5053999;28;20351;-71
2023/01/23 00:07:08;;;;;;;25.60;12.10;;;1.00;99.90;;;;;;5052984;28;20203;-71
2023/01/23 00:09:35;;;;;;;23.37;12.33;;;1.10;99.90;;;;;;5054345;28;20203;-71
2023/01/23 00:12:02;;;;;;;27.70;12.97;;;1.20;99.90;;;;;;5053322;28;20214;-71
2023/01/23 00:14:28;;;;;;;29.97;13.10;;;1.10;99.90;;;;;;5053747;28;20210;-71
2023/01/23 00:16:55;;;;;;;24.50;11.90;;;1.20;99.90;;;;;;5053606;28;20218;-71
2023/01/23 00:19:22;;;;;;;22.33;10.43;;;1.10;99.90;;;;;;5053634;28;20203;-71
2023/01/23 00:21:49;;;;;;;22.87;11.13;;;1.10;99.90;;;;;;5053467;28;20285;-71
2023/01/23 00:24:17;;;;;;;24.60;12.07;;;1.10;99.90;;;;;;5052564;28;20202;-71
2023/01/23 00:26:43;;;;;;;28.53;13.47;;;1.10;99.90;;;;;;5053057;28;20198;-71
2023/01/23 00:29:10;;;;;;;23.33;11.07;;;1.10;99.90;;;;;;5053547;28;20206;-71
2023/01/23 00:31:38;;;;;;;24.90;11.33;;;1.10;99.90;;;;;;5053733;28;20199;-70
2023/01/23 00:34:07;;;;;;;25.87;11.97;;;1.10;99.90;;;;;;5053295;28;20272;-71
2023/01/23 00:36:36;;;;;;;24.13;11.37;;;1.10;99.90;;;;;;5053356;28;20211;-71
2023/01/23 00:39:05;;;;;;;25.47;11.53;;;1.10;99.90;;;;;;5053747;28;20222;-71
2023/01/23 00:41:33;;;;;;;26.03;11.97;;;1.00;99.90;;;;;;5053556;28;20199;-71
2023/01/23 00:44:01;;;;;;;22.90;11.63;;;1.00;99.90;;;;;;5053597;28;20203;-71
2023/01/23 00:46:27;;;;;;;27.67;13.13;;;1.10;99.90;;;;;;5053223;28;20187;-70
2023/01/23 00:48:54;;;;;;;28.20;11.27;;;1.10;99.90;;;;;;5053445;28;20206;-70
2023/01/23 00:51:21;;;;;;;31.37;13.00;;;1.10;99.90;;;;;;5053381;28;20199;-70
2023/01/23 00:53:48;;;;;;;27.73;12.17;;;1.10;99.90;;;;;;5053360;28;20207;-71
2023/01/23 00:56:15;;;;;;;31.30;13.33;;;1.10;99.90;;;;;;5052867;28;20219;-71
2023/01/23 00:58:43;;;;;;;27.80;12.50;;;1.10;99.90;;;;;;5052971;28;20203;-70
2023/01/23 01:01:09;;;;;;;30.80;13.27;;;1.10;99.90;;;;;;5053042;28;20203;-70
2023/01/23 01:03:36;;;;;;;26.53;12.60;;;1.10;99.90;;;;;;5052918;28;20203;-71
2023/01/23 01:06:04;;;;;;;32.93;14.77;;;1.20;99.90;;;;;;5053012;28;20199;-71
2023/01/23 01:08:31;;;;;;;30.17;13.10;;;1.20;99.90;;;;;;5053040;28;20230;-71
2023/01/23 01:10:58;;;;;;;28.77;12.73;;;1.20;99.90;;;;;;5053080;28;20553;-71
2023/01/23 01:13:25;;;;;;;30.53;12.40;;;1.10;99.90;;;;;;5052831;28;20206;-71
2023/01/23 01:15:54;;;;;;;30.60;15.37;;;1.10;99.90;;;;;;5052560;28;20215;-71
2023/01/23 01:18:22;;;;;;;31.10;14.50;;;1.00;99.90;;;;;;5052976;28;20286;-71
2023/01/23 01:20:50;;;;;;;31.83;14.03;;;1.00;99.90;;;;;;5052915;28;20636;-70
2023/01/23 01:23:17;;;;;;;30.07;12.90;;;1.10;99.90;;;;;;5052756;28;20195;-71
2023/01/23 01:25:44;;;;;;;38.10;14.83;;;1.10;99.90;;;;;;5052653;28;20198;-71
2023/01/23 01:28:11;;;;;;;32.67;13.37;;;1.10;99.90;;;;;;5052608;28;20560;-71
2023/01/23 01:30:38;;;;;;;33.83;16.37;;;1.10;99.90;;;;;;5052316;28;20214;-70
2023/01/23 01:33:07;;;;;;;31.70;14.20;;;1.00;99.90;;;;;;5052338;28;20656;-70
2023/01/23 01:35:34;;;;;;;31.50;13.73;;;1.00;99.90;;;;;;5036657;28;20635;-71
2023/01/23 01:38:01;;;;;;;35.47;13.77;;;1.00;99.90;;;;;;5052525;28;20645;-71
2023/01/23 01:40:32;;;;;;;34.60;14.70;;;1.00;99.90;;;;;;5052429;28;20648;-71
2023/01/23 01:43:01;;;;;;;30.70;14.30;;;1.10;99.90;;;;;;5052084;28;20199;-71
2023/01/23 01:46:17;;;;;;;30.60;13.73;;;1.10;99.90;;;;;;5052268;28;20657;-71
2023/01/23 01:48:50;;;;;;;30.40;12.90;;;1.10;99.90;;;;;;5052215;28;20641;-70
2023/01/23 01:51:22;;;;;;;33.53;15.50;;;1.10;99.90;;;;;;5052191;28;20260;-71
2023/01/23 01:53:52;;;;;;;35.27;15.10;;;1.10;99.90;;;;;;5050187;28;20206;-73
2023/01/23 01:56:20;;;;;;;32.00;14.10;;;1.10;99.90;;;;;;5055558;28;20218;-70
2023/01/23 01:58:51;;;;;;;35.80;14.27;;;1.20;99.90;;;;;;5051126;28;20290;-70
2023/01/23 02:01:19;;;;;;;33.20;14.23;;;1.10;99.90;;;;;;5051132;28;20273;-71
2023/01/23 02:03:49;;;;;;;32.70;14.27;;;1.10;99.90;;;;;;5050731;28;20257;-70
2023/01/23 02:06:16;;;;;;;31.63;12.90;;;1.10;99.90;;;;;;5049969;28;20577;-70
2023/01/23 02:08:51;;;;;;;33.40;13.57;;;1.10;99.90;;;;;;5049753;28;20696;-70
2023/01/23 02:11:18;;;;;;;36.67;13.37;;;1.10;99.90;;;;;;5051374;28;20285;-70
2023/01/23 02:13:45;;;;;;;33.67;16.37;;;1.10;99.90;;;;;;5049801;28;20299;-71
2023/01/23 02:16:17;;;;;;;38.10;14.43;;;1.10;99.90;;;;;;5050818;28;20309;-70
2023/01/23 02:18:46;;;;;;;33.90;13.20;;;1.20;99.90;;;;;;5050585;28;20242;-71
2023/01/23 02:21:19;;;;;;;36.73;13.83;;;1.10;99.90;;;;;;5051215;28;20210;-70
2023/01/23 02:23:56;;;;;;;31.97;12.87;;;1.10;99.90;;;;;;5050370;28;20227;-71
2023/01/23 02:26:31;;;;;;;35.83;16.20;;;1.10;99.90;;;;;;5050592;28;20281;-70
2023/01/23 02:28:58;;;;;;;38.57;13.13;;;1.10;99.90;;;;;;5028729;28;20261;-71
2023/01/23 02:31:26;;;;;;;37.17;15.03;;;1.10;99.90;;;;;;5048312;28;20647;-70
2023/01/23 02:33:55;;;;;;;38.23;16.27;;;1.10;99.90;;;;;;5049007;28;20293;-70
2023/01/23 02:36:25;;;;;;;36.10;13.77;;;1.10;99.90;;;;;;5050240;28;20673;-70
2023/01/23 02:39:01;;;;;;;37.17;14.40;;;1.00;99.90;;;;;;5049777;28;20922;-71
2023/01/23 02:41:32;;;;;;;40.70;14.00;;;1.00;99.90;;;;;;5048647;28;20226;-70
2023/01/23 02:44:01;;;;;;;34.80;14.70;;;1.10;99.90;;;;;;5050171;28;20286;-71
2023/01/23 02:46:28;;;;;;;37.13;13.93;;;1.10;99.90;;;;;;5050832;28;20196;-70
2023/01/23 02:48:56;;;;;;;38.00;15.40;;;1.00;99.90;;;;;;5049672;28;20631;-71
2023/01/23 02:51:23;;;;;;;33.40;14.20;;;1.00;99.90;;;;;;5050358;28;20243;-71
2023/01/23 02:56:25;;;;;;;35.73;13.67;;;0.90;99.90;;;;;;5405643;23;20240;-68
2023/01/23 03:01:38;;;;;;;37.50;16.93;;;1.00;99.90;;;;;;4992208;28;20212;-68
2023/01/23 03:04:05;;;;;;;35.23;15.20;;;1.00;99.90;;;;;;4992057;28;20569;-68
2023/01/23 03:06:36;;;;;;;36.33;13.77;;;1.10;99.90;;;;;;4992760;28;20200;-68
2023/01/23 03:09:09;;;;;;;37.67;13.83;;;1.10;99.90;;;;;;4991697;28;20209;-68
2023/01/23 03:11:37;;;;;;;36.87;13.77;;;1.10;99.90;;;;;;4992188;28;20587;-68
2023/01/23 03:14:07;;;;;;;36.20;14.47;;;1.00;99.90;;;;;;4991076;28;20209;-68
2023/01/23 03:16:35;;;;;;;31.73;13.07;;;1.00;99.90;;;;;;4972702;28;20233;-68
2023/01/23 03:19:04;;;;;;;38.40;14.33;;;1.10;99.90;;;;;;4986872;28;20209;-68
2023/01/23 03:21:31;;;;;;;31.87;13.40;;;1.00;99.90;;;;;;4992466;28;20575;-68
2023/01/23 03:23:58;;;;;;;40.00;16.60;;;1.10;99.90;;;;;;4994871;28;20567;-68
2023/01/23 03:26:25;;;;;;;32.07;13.33;;;1.00;99.90;;;;;;4995491;28;20197;-69
2023/01/23 03:31:38;;;;;;;33.37;14.47;;;1.00;99.90;;;;;;4995974;28;20712;-68
2023/01/23 03:34:05;;;;;;;38.30;14.80;;;1.00;99.90;;;;;;4994592;28;20627;-69
2023/01/23 03:36:36;;;;;;;34.83;13.83;;;1.00;99.90;;;;;;4995471;28;20234;-68
2023/01/23 03:41:48;;;;;;;42.83;14.97;;;1.00;99.90;;;;;;4995013;28;20204;-68
2023/01/23 03:44:17;;;;;;;37.90;14.60;;;1.10;99.90;;;;;;4994680;28;20209;-68
2023/01/23 03:46:46;;;;;;;42.70;16.90;;;1.00;99.90;;;;;;4993364;28;20221;-68
2023/01/23 03:49:13;;;;;;;39.07;15.03;;;1.00;99.90;;;;;;4990923;28;20205;-68
2023/01/23 03:51:40;;;;;;;34.73;14.00;;;1.10;99.90;;;;;;4994673;28;20201;-68
2023/01/23 03:54:07;;;;;;;35.53;16.23;;;1.00;99.90;;;;;;4994010;28;20212;-68
2023/01/23 03:56:33;;;;;;;41.93;14.67;;;1.10;99.90;;;;;;4993612;28;20582;-68
2023/01/23 03:59:00;;;;;;;35.57;13.67;;;1.10;99.90;;;;;;4994433;28;20208;-68
2023/01/23 04:01:27;;;;;;;36.80;14.33;;;1.00;99.90;;;;;;4994663;28;20672;-68
2023/01/23 04:03:55;;;;;;;38.37;14.17;;;1.00;99.90;;;;;;4994175;28;20701;-68
2023/01/23 04:06:22;;;;;;;38.00;13.90;;;1.00;99.90;;;;;;4994821;28;20209;-68
2023/01/23 04:08:49;;;;;;;37.97;16.20;;;1.00;99.90;;;;;;4994303;28;20289;-69
2023/01/23 04:11:15;;;;;;;33.60;13.87;;;1.00;99.90;;;;;;4994007;28;20197;-68
2023/01/23 04:13:42;;;;;;;33.63;13.73;;;1.00;99.90;;;;;;4993302;28;20213;-68
2023/01/23 04:16:09;;;;;;;36.87;13.67;;;1.00;99.90;;;;;;4994065;28;20224;-68
2023/01/23 04:18:36;;;;;;;37.37;14.57;;;1.00;99.90;;;;;;4987635;28;20679;-68
2023/01/23 04:21:05;;;;;;;37.80;18.03;;;1.00;99.90;;;;;;4994686;28;20203;-68
2023/01/23 04:23:32;;;;;;;35.17;14.33;;;1.00;99.90;;;;;;4993870;28;20602;-68
2023/01/23 04:25:58;;;;;;;38.60;14.13;;;1.00;99.90;;;;;;4994444;28;20198;-68
2023/01/23 04:28:25;;;;;;;36.70;15.03;;;1.00;99.90;;;;;;4993666;28;20201;-68
2023/01/23 04:30:52;;;;;;;38.10;14.47;;;1.00;99.90;;;;;;4994254;28;20303;-68
2023/01/23 04:33:20;;;;;;;33.50;12.67;;;1.00;99.90;;;;;;4992093;28;20197;-68
2023/01/23 04:35:51;;;;;;;35.93;13.57;;;1.10;99.90;;;;;;4994490;28;20209;-68
2023/01/23 04:38:19;;;;;;;32.73;13.73;;;1.00;99.90;;;;;;4994459;28;20910;-68
2023/01/23 04:40:47;;;;;;;34.47;13.67;;;1.00;99.90;;;;;;4994489;28;20205;-68
2023/01/23 04:43:15;;;;;;;36.73;13.07;;;1.00;99.90;;;;;;4993463;28;20209;-68
2023/01/23 04:45:42;;;;;;;33.37;12.87;;;1.10;99.90;;;;;;4994178;28;20205;-68
2023/01/23 04:48:09;;;;;;;37.37;14.10;;;1.00;99.90;;;;;;4994069;28;20197;-68
2023/01/23 04:50:36;;;;;;;35.90;13.23;;;1.00;99.90;;;;;;4994511;28;20628;-68
2023/01/23 04:53:03;;;;;;;34.33;12.60;;;1.00;99.90;;;;;;4993382;28;20214;-68
2023/01/23 04:55:32;;;;;;;35.13;12.67;;;0.90;99.90;;;;;;4993935;28;20239;-68
2023/01/23 04:57:59;;;;;;;38.30;13.43;;;0.90;99.90;;;;;;4993519;28;20225;-68
2023/01/23 05:00:27;;;;;;;37.13;13.87;;;0.90;99.90;;;;;;4993914;28;20209;-69
2023/01/23 05:02:55;;;;;;;40.77;17.47;;;0.90;99.90;;;;;;4993337;28;20622;-68
2023/01/23 05:05:22;;;;;;;39.17;13.87;;;0.90;99.90;;;;;;4993937;28;20201;-68
2023/01/23 05:07:50;;;;;;;37.60;14.40;;;0.90;99.90;;;;;;4990423;28;20201;-68
2023/01/23 05:10:17;;;;;;;42.23;16.70;;;0.90;99.90;;;;;;4993821;28;20209;-68
2023/01/23 05:12:45;;;;;;;39.80;13.03;;;0.90;99.90;;;;;;4993207;28;20297;-68
2023/01/23 05:15:12;;;;;;;40.60;14.00;;;0.90;99.90;;;;;;4992803;28;20220;-68
2023/01/23 05:17:39;;;;;;;34.23;13.03;;;0.90;99.90;;;;;;4993245;28;20228;-68
2023/01/23 05:20:07;;;;;;;33.43;12.20;;;0.80;99.90;;;;;;4993832;28;20581;-68
2023/01/23 05:22:34;;;;;;;33.67;14.30;;;0.90;99.90;;;;;;4993198;28;20307;-68
2023/01/23 05:25:01;;;;;;;32.87;15.07;;;0.90;99.90;;;;;;4992465;28;20224;-68
2023/01/23 05:27:27;;;;;;;34.97;13.63;;;0.80;99.90;;;;;;4993563;28;20681;-68
2023/01/23 05:29:56;;;;;;;36.40;13.70;;;0.90;99.90;;;;;;4993546;28;20208;-68
2023/01/23 05:32:22;;;;;;;30.10;14.53;;;0.90;99.90;;;;;;4992571;28;20563;-68
2023/01/23 05:34:49;;;;;;;31.43;14.17;;;0.90;99.90;;;;;;4993271;28;20208;-68
2023/01/23 05:37:16;;;;;;;29.70;14.73;;;0.80;99.90;;;;;;4993131;28;20224;-68
2023/01/23 05:39:43;;;;;;;32.20;12.37;;;0.80;99.90;;;;;;4992496;28;20208;-68
2023/01/23 05:42:09;;;;;;;29.97;12.87;;;0.90;99.90;;;;;;4992917;28;20663;-68
2023/01/23 05:44:36;;;;;;;29.20;12.47;;;0.90;99.90;;;;;;4992819;28;20213;-68
2023/01/23 05:47:04;;;;;;;29.83;12.87;;;0.80;99.90;;;;;;4992428;28;20208;-68
2023/01/23 05:49:31;;;;;;;30.27;12.80;;;0.90;99.90;;;;;;4993410;28;20220;-68
2023/01/23 05:51:58;;;;;;;26.80;11.63;;;0.90;99.90;;;;;;4993307;28;20492;-68
2023/01/23 05:54:25;;;;;;;27.20;11.47;;;0.90;99.90;;;;;;4992368;28;20216;-68
2023/01/23 05:56:51;;;;;;;31.40;11.70;;;0.90;99.90;;;;;;4992990;28;20212;-68
2023/01/23 05:59:18;;;;;;;28.87;11.27;;;0.90;99.90;;;;;;4992397;28;20295;-68
2023/01/23 06:01:45;;;;;;;27.33;12.07;;;0.90;99.90;;;;;;4992687;28;20197;-68
2023/01/23 06:04:15;;;;;;;31.00;13.60;;;0.90;99.90;;;;;;4992989;28;20201;-68
2023/01/23 06:06:41;;;;;;;29.13;12.70;;;0.90;99.90;;;;;;4991726;28;20300;-68
2023/01/23 06:09:08;;;;;;;29.17;13.63;;;0.90;99.90;;;;;;4992660;28;20212;-68
2023/01/23 06:11:35;;;;;;;33.43;12.67;;;1.00;99.90;;;;;;4992376;28;20230;-68
2023/01/23 06:14:03;;;;;;;27.37;11.57;;;0.90;99.90;;;;;;4992838;28;20204;-68
2023/01/23 06:16:30;;;;;;;33.53;13.00;;;1.00;99.90;;;;;;4993393;28;20190;-68
2023/01/23 06:18:57;;;;;;;32.10;14.50;;;1.00;99.90;;;;;;4992818;28;20227;-68
2023/01/23 06:21:25;;;;;;;30.60;13.23;;;1.00;99.90;;;;;;4992787;28;20489;-68
2023/01/23 06:23:51;;;;;;;29.27;13.77;;;1.00;99.90;;;;;;4991994;28;20209;-68
2023/01/23 06:26:18;;;;;;;30.93;13.07;;;1.00;99.90;;;;;;4992797;28;20209;-68
2023/01/23 06:28:45;;;;;;;31.97;13.27;;;0.90;99.90;;;;;;4992118;28;20205;-68
2023/01/23 06:31:12;;;;;;;34.30;13.47;;;1.00;99.90;;;;;;4992826;28;20215;-68
2023/01/23 06:33:38;;;;;;;36.30;14.47;;;1.00;99.90;;;;;;4992170;28;20201;-68
2023/01/23 06:36:06;;;;;;;34.37;13.97;;;1.00;99.90;;;;;;4991467;28;20216;-68
2023/01/23 06:38:34;;;;;;;31.57;14.53;;;0.90;99.90;;;;;;4992223;28;20244;-68
2023/01/23 06:41:01;;;;;;;33.50;13.80;;;1.00;99.90;;;;;;4992406;28;20216;-68
2023/01/23 06:43:28;;;;;;;35.87;14.33;;;0.90;99.90;;;;;;4991834;28;20663;-68
2023/01/23 06:45:55;;;;;;;32.40;13.07;;;1.00;99.90;;;;;;4992666;28;20197;-68
2023/01/23 06:48:22;;;;;;;33.90;14.00;;;1.00;99.90;;;;;;4992646;28;20200;-68
2023/01/23 06:50:49;;;;;;;32.47;13.80;;;1.00;99.90;;;;;;4984649;28;20198;-68
2023/01/23 06:53:17;;;;;;;34.00;13.23;;;0.90;99.90;;;;;;4991544;28;20205;-68
2023/01/23 06:55:45;;;;;;;33.87;16.80;;;1.00;99.90;;;;;;4992064;28;20213;-68
2023/01/23 06:58:12;;;;;;;38.40;17.70;;;0.90;99.90;;;;;;4996406;28;20706;-68
2023/01/23 07:00:39;;;;;;;34.67;13.60;;;0.90;99.90;;;;;;4996186;28;20581;-68
2023/01/23 07:03:06;;;;;;;29.80;11.77;;;0.90;99.90;;;;;;4995453;28;20613;-68
2023/01/23 07:05:39;;;;;;;37.07;15.17;;;0.90;99.90;;;;;;4996077;28;20208;-68
2023/01/23 07:08:07;;;;;;;39.27;15.93;;;0.90;99.90;;;;;;4995604;28;20223;-68
2023/01/23 07:10:34;;;;;;;42.13;15.60;;;1.00;99.90;;;;;;4996448;28;20213;-68
2023/01/23 07:13:02;;;;;;;44.07;16.07;;;0.90;99.90;;;;;;4995706;28;20565;-68
2023/01/23 07:15:29;;;;;;;38.17;15.50;;;0.90;99.90;;;;;;4995875;28;20581;-68
2023/01/23 07:17:55;;;;;;;44.83;15.37;;;0.90;99.90;;;;;;4995485;28;20220;-68
2023/01/23 07:20:26;;;;;;;44.40;18.43;;;0.90;99.90;;;;;;4995635;28;20213;-68
2023/01/23 07:22:53;;;;;;;39.40;15.13;;;0.90;99.90;;;;;;4995369;28;20552;-68
2023/01/23 07:25:19;;;;;;;37.10;15.53;;;0.90;99.90;;;;;;4995730;28;20213;-68
2023/01/23 07:27:46;;;;;;;41.27;15.80;;;0.90;99.90;;;;;;4995802;28;20218;-68
2023/01/23 07:30:15;;;;;;;40.70;15.23;;;0.90;99.90;;;;;;4995689;28;20213;-68
2023/01/23 07:32:42;;;;;;;40.50;14.80;;;0.90;99.90;;;;;;4995664;28;20591;-66
2023/01/23 07:35:10;;;;;;;44.70;16.47;;;0.90;99.90;;;;;;4994906;28;20211;-66
2023/01/23 07:37:36;;;;;;;37.80;14.77;;;0.90;99.90;;;;;;4994835;28;20216;-66
2023/01/23 07:40:04;;;;;;;41.43;15.37;;;0.90;99.90;;;;;;4995352;28;20220;-66
2023/01/23 07:42:30;;;;;;;41.83;15.33;;;0.90;99.90;;;;;;4994988;28;20201;-66
2023/01/23 07:44:57;;;;;;;42.33;17.43;;;0.90;99.90;;;;;;4994226;28;20220;-66
2023/01/23 07:47:25;;;;;;;38.67;14.43;;;0.90;99.90;;;;;;4994784;28;20208;-66
2023/01/23 07:49:52;;;;;;;37.60;15.13;;;0.90;99.90;;;;;;4994835;28;20667;-66
2023/01/23 07:52:19;;;;;;;42.07;15.90;;;0.90;99.90;;;;;;4994456;28;20192;-66
2023/01/23 07:54:45;;;;;;;42.63;19.80;;;0.90;99.90;;;;;;4994767;28;20581;-66
2023/01/23 07:57:12;;;;;;;42.00;16.33;;;1.00;99.90;;;;;;4995781;28;20686;-66
2023/01/23 07:59:39;;;;;;;40.87;16.43;;;1.00;99.90;;;;;;4995026;28;20542;-66
2023/01/23 08:02:06;;;;;;;42.50;15.87;;;1.00;99.90;;;;;;4994878;28;20213;-66
2023/01/23 08:04:34;;;;;;;39.60;17.20;;;1.00;99.90;;;;;;4995094;28;20215;-66
2023/01/23 08:07:01;;;;;;;43.40;18.27;;;1.00;99.90;;;;;;4995189;28;20213;-66
2023/01/23 08:09:28;;;;;;;41.30;16.10;;;1.00;99.90;;;;;;4995125;28;20643;-66
2023/01/23 08:11:54;;;;;;;40.40;15.83;;;1.00;99.90;;;;;;4994958;28;20209;-66
2023/01/23 08:14:21;;;;;;;41.73;16.90;;;1.00;99.90;;;;;;4994827;28;20208;-66
2023/01/23 08:16:49;;;;;;;38.60;18.37;;;1.00;99.90;;;;;;4994590;28;20205;-66
2023/01/23 08:19:16;;;;;;;43.00;17.70;;;1.00;99.90;;;;;;4994628;28;20264;-66
2023/01/23 08:21:45;;;;;;;34.70;15.67;;;1.00;99.90;;;;;;4994235;28;20202;-66
2023/01/23 08:24:13;;;;;;;36.57;15.90;;;1.00;99.90;;;;;;4994009;28;20213;-66
2023/01/23 08:26:40;;;;;;;37.90;14.97;;;1.00;99.90;;;;;;4994897;28;20216;-66
2023/01/23 08:29:06;;;;;;;34.93;14.97;;;1.00;99.90;;;;;;4993832;28;20204;-66
2023/01/23 08:31:34;;;;;;;39.23;16.30;;;1.00;99.90;;;;;;4994486;28;20235;-66
2023/01/23 08:34:01;;;;;;;35.10;14.87;;;1.00;99.90;;;;;;4994715;28;20673;-66
2023/01/23 08:36:28;;;;;;;36.70;14.40;;;1.00;99.90;;;;;;4993383;28;20213;-66
2023/01/23 08:38:56;;;;;;;36.87;15.20;;;1.00;99.90;;;;;;4994336;28;20227;-66
2023/01/23 08:41:24;;;;;;;36.37;17.40;;;1.00;99.90;;;;;;4994281;28;20201;-66
2023/01/23 08:43:50;;;;;;;37.03;17.43;;;1.10;99.90;;;;;;4992965;28;20611;-66
2023/01/23 08:46:17;;;;;;;36.97;18.40;;;1.00;99.90;;;;;;4993951;28;20212;-66
2023/01/23 08:48:44;;;;;;;36.87;15.00;;;1.10;99.90;;;;;;4993725;28;20212;-66
2023/01/23 08:51:12;;;;;;;39.00;15.30;;;1.10;99.90;;;;;;4993753;28;20205;-66
2023/01/23 08:53:39;;;;;;;38.57;15.73;;;1.00;99.90;;;;;;4993106;28;20659;-66
2023/01/23 08:56:14;;;;;;;34.50;15.13;;;1.10;99.90;;;;;;4991510;28;20231;-66
2023/01/23 08:58:40;;;;;;;34.47;16.00;;;1.10;99.90;;;;;;4994076;28;20317;-66
2023/01/23 09:01:11;;;;;;;37.23;15.57;;;1.10;99.90;;;;;;4993837;28;20205;-66
2023/01/23 09:03:38;;;;;;;37.80;16.43;;;1.10;99.90;;;;;;4994860;28;20212;-66
2023/01/23 09:06:05;;;;;;;34.20;14.97;;;1.10;99.90;;;;;;4993823;28;20205;-66
2023/01/23 09:08:32;;;;;;;39.90;18.30;;;1.10;99.90;;;;;;4993655;28;20671;-66
2023/01/23 09:11:02;;;;;;;37.60;17.20;;;1.10;99.90;;;;;;4993918;28;20644;-66
2023/01/23 09:13:31;;;;;;;34.63;15.70;;;1.10;99.90;;;;;;4993513;28;20583;-66
2023/01/23 09:15:57;;;;;;;36.83;16.17;;;1.20;99.90;;;;;;4993863;28;20201;-66
2023/01/23 09:18:24;;;;;;;38.47;15.00;;;1.20;99.90;;;;;;4992858;28;20682;-66
2023/01/23 09:20:51;;;;;;;38.37;16.20;;;1.10;99.90;;;;;;4992987;28;20659;-66
2023/01/23 09:23:18;;;;;;;33.97;14.60;;;1.10;99.90;;;;;;4992340;28;20205;-66
2023/01/23 09:25:45;;;;;;;37.90;15.87;;;1.20;99.90;;;;;;4993749;28;20674;-66
2023/01/23 09:28:12;;;;;;;36.67;15.37;;;1.20;99.90;;;;;;4993565;28;20570;-66
2023/01/23 09:30:41;;;;;;;39.80;16.37;;;1.20;99.90;;;;;;4993510;28;20584;-66
2023/01/23 09:33:08;;;;;;;38.60;17.00;;;1.20;99.90;;;;;;4993217;28;20609;-65
2023/01/23 09:35:35;;;;;;;33.37;14.73;;;1.20;99.90;;;;;;4993233;28;20659;-66
2023/01/23 09:38:05;;;;;;;38.37;19.10;;;1.20;99.90;;;;;;4993674;28;20213;-66
2023/01/23 09:40:35;;;;;;;36.33;15.73;;;1.20;99.90;;;;;;4993468;28;20623;-66
2023/01/23 09:43:09;;;;;;;33.17;14.57;;;1.30;99.90;;;;;;4992720;28;20216;-66
2023/01/23 09:45:39;;;;;;;37.27;15.83;;;1.20;99.90;;;;;;4993012;28;20255;-66
2023/01/23 09:48:18;;;;;;;39.60;16.73;;;1.30;99.90;;;;;;4993130;28;20659;-66
2023/01/23 09:50:55;;;;;;;36.37;15.47;;;1.30;99.90;;;;;;4993282;28;20211;-66
2023/01/23 09:53:26;;;;;;;34.60;15.90;;;1.30;99.90;;;;;;4991984;28;20213;-66
2023/01/23 09:55:58;;;;;;;34.00;14.40;;;1.30;99.90;;;;;;4992798;28;20248;-66
2023/01/23 09:58:30;;;;;;;34.03;15.47;;;1.30;99.90;;;;;;4991627;28;20225;-68
2023/01/23 10:00:58;;;;;;;36.27;16.10;;;1.30;99.90;;;;;;4992204;28;20595;-66
2023/01/23 10:03:30;;;;;;;34.03;15.60;;;1.30;99.90;;;;;;4992101;28;20201;-66
2023/01/23 10:06:12;;;;;;;35.43;14.73;;;1.30;99.90;;;;;;4993196;28;20209;-66
2023/01/23 10:08:47;;;;;;;34.97;14.80;;;1.30;99.90;;;;;;4993104;28;20209;-66
2023/01/23 10:11:21;;;;;;;37.03;15.63;;;1.30;99.90;;;;;;4992699;28;20211;-66
2023/01/23 10:14:03;;;;;;;31.87;15.27;;;1.30;99.90;;;;;;4992845;28;20582;-66
2023/01/23 10:16:52;;;;;;;35.90;15.83;;;1.30;99.90;;;;;;4992711;28;20208;-66
2023/01/23 10:19:38;;;;;;;33.37;14.73;;;1.30;99.90;;;;;;4992581;28;20679;-66
2023/01/23 10:22:24;;;;;;;34.40;14.90;;;1.40;99.90;;;;;;4987394;28;20201;-66
2023/01/23 10:24:55;;;;;;;35.40;16.97;;;1.30;99.90;;;;;;4992823;28;20209;-66
2023/01/23 10:27:24;;;;;;;32.23;15.50;;;1.30;99.90;;;;;;4993086;28;20687;-66
2023/01/23 10:29:56;;;;;;;32.10;14.23;;;1.30;99.90;;;;;;4993286;28;20381;-66
2023/01/23 10:32:31;;;;;;;34.47;14.07;;;1.30;99.90;;;;;;4996608;28;20208;-66
2023/01/23 10:35:05;;;;;;;34.67;15.17;;;1.30;99.90;;;;;;4996760;28;20223;-66
2023/01/23 10:37:42;;;;;;;32.97;14.83;;;1.30;99.90;;;;;;4996768;28;20232;-66
2023/01/23 10:40:13;;;;;;;33.57;14.63;;;1.30;99.90;;;;;;4996699;28;20228;-66
2023/01/23 10:42:41;;;;;;;35.70;14.80;;;1.40;99.90;;;;;;4996320;28;20240;-66
2023/01/23 10:45:18;;;;;;;32.00;13.80;;;1.30;99.90;;;;;;4995935;28;20211;-66
2023/01/23 10:47:46;;;;;;;36.53;15.10;;;1.30;99.90;;;;;;4995379;28;20613;-66
2023/01/23 10:50:15;;;;;;;29.43;13.23;;;1.30;99.90;;;;;;4996530;28;20207;-66
2023/01/23 10:52:44;;;;;;;33.23;13.23;;;1.30;99.90;;;;;;4996342;28;20562;-66
2023/01/23 10:55:35;;;;;;;32.27;14.33;;;1.30;99.90;;;;;;4996499;28;20209;-66
2023/01/23 10:58:02;;;;;;;33.13;13.77;;;1.40;99.90;;;;;;4980924;28;20205;-66
2023/01/23 11:00:35;;;;;;;31.60;16.27;;;1.40;99.90;;;;;;4996003;28;20228;-66
2023/01/23 11:03:24;;;;;;;32.40;15.37;;;1.40;99.90;;;;;;4994099;28;20205;-66
2023/01/23 11:05:54;;;;;;;33.40;12.83;;;1.50;99.90;;;;;;4984907;28;20292;-66
2023/01/23 11:08:26;;;;;;;31.37;12.83;;;1.50;99.90;;;;;;4995740;28;20248;-66
2023/01/23 11:10:54;;;;;;;30.73;14.00;;;1.50;99.90;;;;;;4995536;28;20215;-66
2023/01/23 11:13:28;;;;;;;32.17;13.57;;;1.50;99.90;;;;;;4995319;28;20287;-66
2023/01/23 11:15:55;;;;;;;28.37;12.30;;;1.50;99.90;;;;;;4995737;28;20539;-66
2023/01/23 11:18:32;;;;;;;32.00;16.17;;;1.50;99.90;;;;;;4995037;28;20283;-66
2023/01/23 11:21:01;;;;;;;33.87;16.40;;;1.50;99.90;;;;;;4995320;28;20209;-66
2023/01/23 11:23:35;;;;;;;33.87;13.67;;;1.50;99.90;;;;;;4993893;28;20648;-66
2023/01/23 11:26:02;;;;;;;33.57;15.53;;;1.50;99.90;;;;;;4995173;28;20207;-66
2023/01/23 11:28:33;;;;;;;34.07;14.07;;;1.50;99.90;;;;;;4993950;28;20228;-66
2023/01/23 11:31:05;;;;;;;33.53;14.33;;;1.50;99.90;;;;;;4994558;28;20497;-66
2023/01/23 11:33:40;;;;;;;33.13;14.07;;;1.50;99.90;;;;;;4993433;28;20232;-66
2023/01/23 11:36:28;;;;;;;32.13;13.10;;;1.50;99.90;;;;;;4994913;28;20243;-66
2023/01/23 11:39:01;;;;;;;36.10;14.17;;;1.50;99.90;;;;;;4995151;28;20225;-66
2023/01/23 11:41:30;;;;;;;35.23;14.30;;;1.50;99.90;;;;;;4994567;28;20288;-66
2023/01/23 11:43:57;;;;;;;38.93;15.47;;;1.50;99.90;;;;;;4994033;28;20620;-66
2023/01/23 11:46:44;;;;;;;33.93;14.07;;;1.50;99.90;;;;;;4994261;28;20612;-66
2023/01/23 11:49:24;;;;;;;41.33;14.23;;;1.50;99.90;;;;;;4994504;28;20639;-66
2023/01/23 11:52:07;;;;;;;40.43;15.80;;;1.50;99.90;;;;;;4994831;28;20201;-66
2023/01/23 11:54:56;;;;;;;42.70;16.73;;;1.50;99.90;;;;;;4994740;28;20572;-66
2023/01/23 11:57:36;;;;;;;40.40;14.33;;;1.40;99.90;;;;;;4994480;28;20288;-66
2023/01/23 12:00:16;;;;;;;35.73;15.30;;;1.40;99.90;;;;;;4994557;28;20315;-66
2023/01/23 12:03:31;;;;;;;39.97;15.60;;;1.40;99.90;;;;;;4994086;28;20621;-67
2023/01/23 12:06:11;;;;;;;34.33;13.97;;;1.50;99.90;;;;;;4987929;28;20291;-66
2023/01/23 12:08:47;;;;;;;42.17;16.63;;;1.50;99.90;;;;;;4994326;28;20247;-66
2023/01/23 12:11:16;;;;;;;50.87;17.77;;;1.40;99.90;;;;;;4992730;28;20627;-66
2023/01/23 12:13:58;;;;;;;42.97;16.60;;;1.40;99.90;;;;;;4993930;28;20295;-66
2023/01/23 12:16:35;;;;;;;42.87;15.83;;;1.40;99.90;;;;;;4994016;28;20213;-66
2023/01/23 12:19:21;;;;;;;42.37;16.73;;;1.40;99.90;;;;;;4994099;28;20268;-66
2023/01/23 12:21:56;;;;;;;44.77;16.30;;;1.40;99.90;;;;;;4993591;28;20240;-66
2023/01/23 12:24:40;;;;;;;37.97;14.33;;;1.40;99.90;;;;;;4993870;28;20247;-66
2023/01/23 12:27:16;;;;;;;41.20;15.53;;;1.40;99.90;;;;;;4992937;28;20301;-66
2023/01/23 12:29:59;;;;;;;43.80;15.27;;;1.30;99.90;;;;;;4993556;28;20291;-66
2023/01/23 12:32:38;;;;;;;42.67;15.57;;;1.40;99.90;;;;;;4993646;28;20250;-66
2023/01/23 12:35:20;;;;;;;44.20;19.80;;;1.40;99.90;;;;;;4993885;28;20205;-66
2023/01/23 12:37:59;;;;;;;39.37;15.13;;;1.40;99.90;;;;;;4993910;28;20288;-66
2023/01/23 12:40:33;;;;;;;40.93;15.37;;;1.40;99.90;;;;;;4993315;28;20390;-66
2023/01/23 12:43:04;;;;;;;44.50;16.13;;;1.40;99.90;;;;;;4993107;28;20296;-66
2023/01/23 12:45:32;;;;;;;41.63;15.93;;;1.40;99.90;;;;;;4974563;28;20654;-66
2023/01/23 12:48:06;;;;;;;41.07;16.33;;;1.40;99.90;;;;;;4974072;28;20296;-66
2023/01/23 12:50:42;;;;;;;42.47;18.97;;;1.40;99.90;;;;;;4974060;28;20671;-69
2023/01/23 12:53:12;;;;;;;42.97;15.83;;;1.40;99.90;;;;;;4973466;28;20220;-68
2023/01/23 12:55:50;;;;;;;37.63;15.33;;;1.40;99.90;;;;;;4990971;28;20241;-67
2023/01/23 12:58:19;;;;;;;35.47;15.37;;;1.40;99.90;;;;;;4987818;28;20217;-71
2023/01/23 13:01:05;;;;;;;37.50;15.63;;;1.40;99.90;;;;;;4987112;28;20224;-70